Time,TemperatureF,DewpointF,PressureIn,WindDirection,WindDirectionDegrees,WindSpeedMPH,WindSpeedGustMPH,Humidity,HourlyPrecipIn,Conditions,Clouds,dailyrainin,SolarRadiationWatts/m^2,SoftwareType,DateUTC
2013-10-21 00:12:00,49.0,10.0,-100.00,NW,318,7.0,13.0,20,0.00,,,0.00,0.000000,,2013-10-21 07:12:00,
2013-10-21 00:22:00,49.0,10.0,-100.00,NW,318,7.0,13.0,20,0.00,,,0.00,0.000000,,2013-10-21 07:22:00,
2013-10-21 00:32:00,49.0,10.0,-100.00,NW,318,7.0,13.0,20,0.00,,,0.00,0.000000,,2013-10-21 07:32:00,
2013-10-21 01:12:00,49.0,10.0,-100.00,NNW,327,6.0,14.0,20,0.00,,,0.00,0.000000,,2013-10-21 08:12:00,
2013-10-21 01:21:00,49.0,10.0,-100.00,NNW,327,6.0,14.0,20,0.00,,,0.00,0.000000,,2013-10-21 08:21:00,
2013-10-21 01:32:00,49.0,10.0,-100.00,NNW,327,6.0,14.0,20,0.00,,,0.00,0.000000,,2013-10-21 08:32:00,
2013-10-21 02:11:00,50.0,11.0,-100.00,NNW,333,6.0,13.0,20,0.00,,,0.00,0.000000,,2013-10-21 09:11:00,
2013-10-21 02:22:00,50.0,11.0,-100.00,NNW,333,6.0,13.0,20,0.00,,,0.00,0.000000,,2013-10-21 09:22:00,
2013-10-21 02:33:00,50.0,11.0,-100.00,NNW,333,6.0,13.0,20,0.00,,,0.00,0.000000,,2013-10-21 09:33:00,
2013-10-21 03:13:00,51.0,10.0,-100.00,NNW,327,6.0,11.0,19,0.00,,,0.00,0.000000,,2013-10-21 10:13:00,
2013-10-21 03:23:00,51.0,10.0,-100.00,NNW,327,6.0,11.0,19,0.00,,,0.00,0.000000,,2013-10-21 10:23:00,
2013-10-21 03:33:00,51.0,10.0,-100.00,NNW,327,6.0,11.0,19,0.00,,,0.00,0.000000,,2013-10-21 10:33:00,
2013-10-21 04:12:00,51.0,11.0,-100.00,NW,308,7.0,11.0,20,0.00,,,0.00,0.000000,,2013-10-21 11:12:00,
2013-10-21 04:22:00,51.0,11.0,-100.00,NW,308,7.0,11.0,20,0.00,,,0.00,0.000000,,2013-10-21 11:22:00,
2013-10-21 04:33:00,51.0,11.0,-100.00,NW,308,7.0,11.0,20,0.00,,,0.00,0.000000,,2013-10-21 11:33:00,
2013-10-21 05:12:00,51.0,10.0,-100.00,NNW,343,7.0,12.0,19,0.00,,,0.00,0.000000,,2013-10-21 12:12:00,
2013-10-21 05:22:00,51.0,10.0,-100.00,NNW,343,7.0,12.0,19,0.00,,,0.00,0.000000,,2013-10-21 12:22:00,
2013-10-21 05:32:00,51.0,10.0,-100.00,NNW,343,7.0,12.0,19,0.00,,,0.00,0.000000,,2013-10-21 12:32:00,
2013-10-21 06:11:00,51.0,10.0,-100.00,NNW,334,5.0,11.0,19,0.00,,,0.00,0.000000,,2013-10-21 13:11:00,
2013-10-21 06:22:00,51.0,10.0,-100.00,NNW,334,5.0,11.0,19,0.00,,,0.00,0.000000,,2013-10-21 13:22:00,
2013-10-21 06:32:00,51.0,10.0,-100.00,NNW,334,5.0,11.0,19,0.00,,,0.00,0.000000,,2013-10-21 13:32:00,
2013-10-21 07:11:00,51.0,10.0,-100.00,NNW,348,6.0,10.0,19,0.00,,,0.00,1.000000,,2013-10-21 14:11:00,
2013-10-21 07:22:00,51.0,10.0,-100.00,NNW,348,6.0,10.0,19,0.00,,,0.00,1.000000,,2013-10-21 14:22:00,
2013-10-21 07:32:00,51.0,10.0,-100.00,NNW,348,6.0,10.0,19,0.00,,,0.00,1.000000,,2013-10-21 14:32:00,
2013-10-21 08:12:00,57.0,14.0,-100.00,NW,310,3.0,10.0,18,0.00,,,0.00,120.000000,,2013-10-21 15:12:00,
2013-10-21 08:21:00,57.0,14.0,-100.00,NW,310,3.0,10.0,18,0.00,,,0.00,120.000000,,2013-10-21 15:21:00,
2013-10-21 08:33:00,57.0,14.0,-100.00,NW,310,3.0,10.0,18,0.00,,,0.00,120.000000,,2013-10-21 15:33:00,
2013-10-21 09:13:00,63.0,18.0,-100.00,North,359,2.0,8.0,17,0.00,,,0.00,388.000000,,2013-10-21 16:13:00,
2013-10-21 09:23:00,63.0,18.0,-100.00,North,359,2.0,8.0,17,0.00,,,0.00,388.000000,,2013-10-21 16:23:00,
2013-10-21 09:33:00,63.0,18.0,-100.00,North,359,2.0,8.0,17,0.00,,,0.00,388.000000,,2013-10-21 16:33:00,
2013-10-21 10:12:00,66.0,20.0,-100.00,SSE,148,4.0,7.0,17,0.00,,,0.00,632.000000,,2013-10-21 17:12:00,
2013-10-21 10:22:00,66.0,20.0,-100.00,SSE,148,4.0,7.0,17,0.00,,,0.00,632.000000,,2013-10-21 17:22:00,
2013-10-21 10:34:00,66.0,20.0,-100.00,SSE,148,4.0,7.0,17,0.00,,,0.00,632.000000,,2013-10-21 17:34:00,
2013-10-21 11:12:00,64.0,17.0,-100.00,SSE,153,4.0,8.0,16,0.00,,,0.00,831.000000,,2013-10-21 18:12:00,
2013-10-21 11:21:00,64.0,17.0,-100.00,SSE,153,4.0,8.0,16,0.00,,,0.00,831.000000,,2013-10-21 18:21:00,
2013-10-21 11:32:00,64.0,17.0,-100.00,SSE,153,4.0,8.0,16,0.00,,,0.00,831.000000,,2013-10-21 18:32:00,
2013-10-21 12:11:00,63.0,20.0,-100.00,SE,134,6.0,11.0,19,0.00,,,0.00,958.000000,,2013-10-21 19:11:00,
2013-10-21 12:21:00,63.0,20.0,-100.00,SE,134,6.0,11.0,19,0.00,,,0.00,958.000000,,2013-10-21 19:21:00,
2013-10-21 12:32:00,63.0,20.0,-100.00,SE,134,6.0,11.0,19,0.00,,,0.00,958.000000,,2013-10-21 19:32:00,
2013-10-21 13:11:00,66.0,20.0,-100.00,SSE,148,5.0,11.0,17,0.00,,,0.00,999.000000,,2013-10-21 20:11:00,
2013-10-21 13:21:00,66.0,20.0,-100.00,SSE,148,5.0,11.0,17,0.00,,,0.00,999.000000,,2013-10-21 20:21:00,
2013-10-21 13:32:00,66.0,20.0,-100.00,SSE,148,5.0,11.0,17,0.00,,,0.00,999.000000,,2013-10-21 20:32:00,
2013-10-21 14:12:00,70.0,23.0,-100.00,SW,216,4.0,11.0,17,0.00,,,0.00,962.000000,,2013-10-21 21:12:00,
2013-10-21 14:22:00,70.0,23.0,-100.00,SW,216,4.0,11.0,17,0.00,,,0.00,962.000000,,2013-10-21 21:22:00,
2013-10-21 14:34:00,70.0,23.0,-100.00,SW,216,4.0,11.0,17,0.00,,,0.00,962.000000,,2013-10-21 21:34:00,
2013-10-21 15:13:00,70.0,22.0,-100.00,WSW,239,5.0,11.0,16,0.00,,,0.00,842.000000,,2013-10-21 22:13:00,
2013-10-21 15:23:00,70.0,22.0,-100.00,WSW,239,5.0,11.0,16,0.00,,,0.00,842.000000,,2013-10-21 22:23:00,
2013-10-21 15:34:00,70.0,22.0,-100.00,WSW,239,5.0,11.0,16,0.00,,,0.00,842.000000,,2013-10-21 22:34:00,
2013-10-21 16:12:00,68.0,19.0,-100.00,SW,227,4.0,9.0,15,0.00,,,0.00,651.000000,,2013-10-21 23:12:00,
2013-10-21 16:22:00,68.0,19.0,-100.00,SW,227,4.0,9.0,15,0.00,,,0.00,651.000000,,2013-10-21 23:22:00,
2013-10-21 16:34:00,68.0,19.0,-100.00,SW,227,4.0,9.0,15,0.00,,,0.00,651.000000,,2013-10-21 23:34:00,
2013-10-21 17:12:00,65.0,18.0,-100.00,SSW,208,3.0,11.0,16,0.00,,,0.00,409.000000,,2013-10-22 00:12:00,
2013-10-21 17:22:00,65.0,18.0,-100.00,SSW,208,3.0,11.0,16,0.00,,,0.00,409.000000,,2013-10-22 00:22:00,
2013-10-21 17:32:00,65.0,18.0,-100.00,SSW,208,3.0,11.0,16,0.00,,,0.00,409.000000,,2013-10-22 00:32:00,
2013-10-21 18:12:00,56.0,13.0,-100.00,SE,130,2.0,8.0,18,0.00,,,0.00,144.000000,,2013-10-22 01:12:00,
2013-10-21 18:21:00,56.0,13.0,-100.00,SE,130,2.0,8.0,18,0.00,,,0.00,144.000000,,2013-10-22 01:21:00,
2013-10-21 18:32:00,56.0,13.0,-100.00,SE,130,2.0,8.0,18,0.00,,,0.00,144.000000,,2013-10-22 01:32:00,
2013-10-21 19:11:00,52.0,11.0,-100.00,ENE,74,3.0,4.0,19,0.00,,,0.00,2.000000,,2013-10-22 02:11:00,
2013-10-21 19:22:00,52.0,11.0,-100.00,ENE,74,3.0,4.0,19,0.00,,,0.00,2.000000,,2013-10-22 02:22:00,
2013-10-21 19:32:00,52.0,11.0,-100.00,ENE,74,3.0,4.0,19,0.00,,,0.00,2.000000,,2013-10-22 02:32:00,
2013-10-21 20:12:00,51.0,11.0,-100.00,ENE,59,4.0,7.0,20,0.00,,,0.00,0.000000,,2013-10-22 03:12:00,
2013-10-21 20:22:00,51.0,11.0,-100.00,ENE,59,4.0,7.0,20,0.00,,,0.00,0.000000,,2013-10-22 03:22:00,
2013-10-21 20:34:00,51.0,11.0,-100.00,ENE,59,4.0,7.0,20,0.00,,,0.00,0.000000,,2013-10-22 03:34:00,
2013-10-21 21:13:00,52.0,11.0,-100.00,NNE,22,5.0,9.0,19,0.00,,,-99.99,0.000000,,2013-10-22 04:13:00,
2013-10-21 21:24:00,52.0,11.0,-100.00,NNE,22,5.0,9.0,19,0.00,,,-99.99,0.000000,,2013-10-22 04:24:00,
2013-10-21 21:34:00,52.0,11.0,-100.00,NNE,22,5.0,9.0,19,0.00,,,-99.99,0.000000,,2013-10-22 04:34:00,
2013-10-21 22:13:00,53.0,8.0,-100.00,NE,39,2.0,8.0,16,0.00,,,-99.99,0.000000,,2013-10-22 05:13:00,
2013-10-21 22:22:00,53.0,8.0,-100.00,NE,39,2.0,8.0,16,0.00,,,-99.99,0.000000,,2013-10-22 05:22:00,
2013-10-21 22:34:00,53.0,8.0,-100.00,NE,39,2.0,8.0,16,0.00,,,-99.99,0.000000,,2013-10-22 05:34:00,
2013-10-21 23:12:00,52.0,7.0,-100.00,NNE,25,4.0,6.0,16,0.00,,,0.00,0.000000,,2013-10-22 06:12:00,
2013-10-21 23:22:00,52.0,7.0,-100.00,NNE,25,4.0,6.0,16,0.00,,,0.00,0.000000,,2013-10-22 06:22:00,
2013-10-21 23:33:00,52.0,7.0,-100.00,NNE,25,4.0,6.0,16,0.00,,,0.00,0.000000,,2013-10-22 06:33:00,